Clear Creek, California
Current Conditions -  °F | °C
As of 1:52 PM on Saturday 25 Oct 2014 (Local Time) from KCIC Reporting Station
Broken Clouds Broken Clouds  
Wind Chill: 66°   Ceiling: 5500
Heat Index: 66°   Visibility: 10mi
Dew Point: 54°   Wind: 29mph
Humidity: 64%   Direction: 130°SE
Pressure: 29.97"   Gusts: 37mph
Location:  40.2872°N, 121.096°W
Report Text: KCIC 252052Z 13025G32KT 10SM FEW032 BKN055 BKN060 19/12 A2997
Loading
Personal Weather Stations






























Interactive Weather Map
Tropical Storm Tracking
New forecast layout! Learn more

10-Day Weather Forecast

Advertisements
Track Severe Weather on mobile